createdAt,value
2018-07-15T00:01:51.223Z,0
2018-07-15T00:02:31.501Z,0
2018-07-15T00:03:11.967Z,0
2018-07-15T00:03:52.324Z,0
2018-07-15T00:04:32.735Z,0
2018-07-15T00:05:13.126Z,0
2018-07-15T00:05:53.547Z,0
2018-07-15T00:06:33.986Z,0
2018-07-15T00:07:14.444Z,0
2018-07-15T00:07:54.847Z,0
2018-07-15T00:08:35.239Z,0
2018-07-15T00:11:11.012Z,0
2018-07-15T00:11:52.812Z,0
2018-07-15T00:12:33.234Z,0
2018-07-15T00:13:13.586Z,0
2018-07-15T00:13:54.023Z,0
2018-07-15T00:14:34.444Z,0
2018-07-15T00:15:14.912Z,0
2018-07-15T00:15:55.247Z,0
2018-07-15T00:16:35.654Z,0
2018-07-15T00:18:54.602Z,0
2018-07-15T00:19:33.463Z,0
2018-07-15T00:21:31.461Z,0
2018-07-15T00:22:11.908Z,0
2018-07-15T00:22:52.295Z,0
2018-07-15T00:23:32.724Z,0
2018-07-15T00:24:13.134Z,0
2018-07-15T00:24:53.557Z,0
2018-07-15T00:25:33.983Z,0
2018-07-15T00:26:14.418Z,0
2018-07-15T00:26:54.811Z,0
2018-07-15T00:27:35.275Z,0
2018-07-15T00:28:15.653Z,0
2018-07-15T00:28:56.058Z,0
2018-07-15T00:29:36.508Z,0
2018-07-15T00:30:16.897Z,0
2018-07-15T00:32:30.750Z,0
2018-07-15T00:33:10.436Z,0
2018-07-15T00:33:50.875Z,0
2018-07-15T00:34:31.275Z,0
2018-07-15T00:35:11.700Z,0
2018-07-15T00:35:52.108Z,0
2018-07-15T00:36:32.553Z,0
2018-07-15T00:37:12.934Z,0
2018-07-15T00:37:53.343Z,0
2018-07-15T00:38:33.809Z,0
2018-07-15T00:39:14.166Z,0
2018-07-15T00:39:54.534Z,0
2018-07-15T00:40:34.961Z,0
2018-07-15T00:41:15.339Z,0
2018-07-15T00:43:14.061Z,0
2018-07-15T00:43:54.428Z,0
2018-07-15T00:44:34.869Z,0
2018-07-15T00:45:15.234Z,0
2018-07-15T00:45:55.675Z,0
2018-07-15T00:47:53.747Z,0
2018-07-15T00:48:34.101Z,0
2018-07-15T00:49:14.483Z,0
2018-07-15T00:49:54.892Z,0
2018-07-15T00:51:53.453Z,0
2018-07-15T00:52:33.883Z,0
2018-07-15T00:53:14.329Z,0
2018-07-15T00:53:54.698Z,0
2018-07-15T00:54:35.101Z,0
2018-07-15T00:55:15.565Z,0
2018-07-15T00:55:55.924Z,0
2018-07-15T00:56:36.344Z,0
2018-07-15T00:57:16.775Z,0
2018-07-15T00:57:57.218Z,0
2018-07-15T00:58:37.698Z,0
2018-07-15T00:59:17.986Z,0
2018-07-15T00:59:58.400Z,0
2018-07-15T01:00:38.852Z,0
2018-07-15T01:01:19.228Z,0
2018-07-15T01:01:59.658Z,0
2018-07-15T01:02:40.042Z,0
2018-07-15T01:03:20.458Z,0
2018-07-15T01:04:00.868Z,0
2018-07-15T01:04:41.272Z,0
2018-07-15T01:05:21.659Z,0
2018-07-15T01:06:02.082Z,0
2018-07-15T01:08:21.265Z,0
2018-07-15T01:09:01.658Z,0
2018-07-15T01:09:42.085Z,0
2018-07-15T01:10:22.453Z,0
2018-07-15T01:11:02.872Z,0
2018-07-15T01:11:43.289Z,0
2018-07-15T01:12:23.702Z,0
2018-07-15T01:13:04.089Z,0
2018-07-15T01:13:44.504Z,0
2018-07-15T01:14:24.915Z,0
2018-07-15T01:15:05.378Z,0
2018-07-15T01:15:45.780Z,0
2018-07-15T01:16:26.160Z,0
2018-07-15T01:17:06.564Z,0
2018-07-15T01:17:47.002Z,0
2018-07-15T01:18:27.409Z,0
2018-07-15T01:19:07.861Z,0
2018-07-15T01:19:48.235Z,0
2018-07-15T01:20:28.652Z,0
2018-07-15T01:21:09.105Z,0
2018-07-15T01:21:49.461Z,0
2018-07-15T01:22:29.890Z,0
2018-07-15T01:23:10.329Z,0
2018-07-15T01:23:50.747Z,0
2018-07-15T01:24:31.145Z,0
2018-07-15T01:25:11.533Z,0
2018-07-15T01:25:51.980Z,0
2018-07-15T01:26:32.390Z,0
2018-07-15T01:27:12.766Z,0
2018-07-15T01:27:53.154Z,0
2018-07-15T01:30:30.496Z,0
2018-07-15T01:31:12.954Z,0
2018-07-15T01:31:53.381Z,0
2018-07-15T01:32:33.813Z,0
2018-07-15T01:33:14.199Z,0
2018-07-15T01:33:54.680Z,0
2018-07-15T01:34:34.999Z,0
2018-07-15T01:35:15.418Z,0
2018-07-15T01:35:55.853Z,0
2018-07-15T01:36:36.267Z,0
2018-07-15T01:37:16.676Z,0
2018-07-15T01:37:57.095Z,0
2018-07-15T01:38:37.521Z,0
2018-07-15T01:39:17.916Z,0
2018-07-15T01:39:58.327Z,0
2018-07-15T01:40:38.734Z,0
2018-07-15T01:41:19.125Z,0
2018-07-15T01:41:59.536Z,0
2018-07-15T01:42:39.959Z,0
2018-07-15T01:43:20.359Z,0
2018-07-15T01:44:00.745Z,0
2018-07-15T01:44:41.176Z,0
2018-07-15T01:45:21.599Z,0
2018-07-15T01:46:02.055Z,0
2018-07-15T01:46:42.444Z,0
2018-07-15T01:47:22.810Z,0
2018-07-15T01:48:03.233Z,0
2018-07-15T01:48:43.645Z,0
2018-07-15T01:49:24.072Z,0
2018-07-15T01:50:04.545Z,0
2018-07-15T01:50:44.923Z,0
2018-07-15T01:51:25.361Z,0
2018-07-15T01:52:05.782Z,0
2018-07-15T01:52:46.153Z,0
2018-07-15T01:53:26.613Z,0
2018-07-15T01:54:06.991Z,0
2018-07-15T01:54:47.421Z,0
2018-07-15T01:55:27.783Z,0
2018-07-15T01:56:08.170Z,0
2018-07-15T01:56:48.584Z,0
2018-07-15T01:57:28.968Z,0
2018-07-15T01:58:09.428Z,0
2018-07-15T01:58:49.827Z,0
2018-07-15T01:59:30.270Z,0
2018-07-15T02:00:10.665Z,0
2018-07-15T02:00:51.089Z,0
2018-07-15T02:01:31.516Z,0
2018-07-15T02:02:11.965Z,0
2018-07-15T02:02:52.351Z,0
2018-07-15T02:03:32.780Z,0
2018-07-15T02:04:13.184Z,0
2018-07-15T02:04:53.579Z,0
2018-07-15T02:05:33.985Z,0
2018-07-15T02:07:33.872Z,0
2018-07-15T02:08:15.782Z,0
2018-07-15T02:08:56.131Z,0
2018-07-15T02:10:57.598Z,0
2018-07-15T02:11:36.795Z,0
2018-07-15T02:12:17.191Z,0
2018-07-15T02:12:57.613Z,0
2018-07-15T02:13:38.005Z,0
2018-07-15T02:14:18.388Z,0
2018-07-15T02:14:58.815Z,0
2018-07-15T02:15:39.249Z,0
2018-07-15T02:16:19.621Z,0
2018-07-15T02:17:00.051Z,0
2018-07-15T02:17:40.481Z,0
2018-07-15T02:18:20.865Z,0
2018-07-15T02:19:01.270Z,0
2018-07-15T02:19:41.665Z,0
2018-07-15T02:20:22.083Z,0
2018-07-15T02:21:02.477Z,0
2018-07-15T02:21:42.897Z,0
2018-07-15T02:22:23.298Z,0
2018-07-15T02:23:03.699Z,0
2018-07-15T02:23:44.123Z,0
2018-07-15T02:24:24.525Z,0
2018-07-15T02:25:04.949Z,0
2018-07-15T02:25:45.359Z,0
2018-07-15T02:26:25.766Z,0
2018-07-15T02:27:06.193Z,0
2018-07-15T02:27:46.585Z,0
2018-07-15T02:28:26.961Z,0
2018-07-15T02:29:07.406Z,0
2018-07-15T02:29:47.783Z,0
2018-07-15T02:30:28.217Z,0
2018-07-15T02:31:08.638Z,0
2018-07-15T02:31:49.022Z,0
2018-07-15T02:36:11.592Z,0
2018-07-15T02:36:53.489Z,0
2018-07-15T02:37:33.787Z,0
2018-07-15T02:38:14.190Z,0
2018-07-15T02:38:54.613Z,0
2018-07-15T02:39:35.025Z,0
2018-07-15T02:40:15.427Z,0
2018-07-15T02:40:55.817Z,0
2018-07-15T02:41:36.292Z,0
2018-07-15T02:47:22.820Z,0
2018-07-15T02:48:03.184Z,0
2018-07-15T02:48:43.588Z,0
2018-07-15T02:49:23.988Z,0
2018-07-15T02:50:04.397Z,0
2018-07-15T02:50:44.829Z,0
2018-07-15T02:51:25.260Z,0
2018-07-15T02:52:05.663Z,0
2018-07-15T02:52:46.070Z,0
2018-07-15T02:53:26.498Z,0
2018-07-15T02:54:06.998Z,0
2018-07-15T02:54:47.329Z,0
2018-07-15T02:55:27.662Z,0
2018-07-15T02:56:08.124Z,0
2018-07-15T02:56:48.490Z,0
2018-07-15T02:57:28.891Z,4
2018-07-15T02:58:09.348Z,4
2018-07-15T02:58:49.729Z,4
2018-07-15T02:59:30.153Z,0
2018-07-15T03:00:10.565Z,0
2018-07-15T03:00:50.997Z,0
2018-07-15T03:01:31.396Z,4
2018-07-15T03:02:11.812Z,4
2018-07-15T03:02:52.268Z,4
2018-07-15T03:03:32.621Z,0
2018-07-15T03:04:13.048Z,4
2018-07-15T03:04:53.489Z,4
2018-07-15T03:05:33.853Z,4
2018-07-15T03:06:14.262Z,4
2018-07-15T03:06:54.671Z,4
2018-07-15T03:07:35.079Z,4
2018-07-15T03:08:15.486Z,4
2018-07-15T03:08:55.871Z,4
2018-07-15T03:09:36.318Z,8
2018-07-15T03:10:16.740Z,4
2018-07-15T03:10:57.169Z,8
2018-07-15T03:11:37.568Z,4
2018-07-15T03:12:18.013Z,8
2018-07-15T03:15:26.548Z,12
2018-07-15T03:16:06.970Z,8
2018-07-15T03:16:47.358Z,12
2018-07-15T03:17:27.890Z,12
2018-07-15T03:18:08.150Z,16
2018-07-15T03:18:48.578Z,16
2018-07-15T03:19:29.038Z,16
2018-07-15T03:20:09.388Z,16
2018-07-15T03:20:49.777Z,16
2018-07-15T03:21:30.215Z,20
2018-07-15T03:22:10.600Z,20
2018-07-15T03:22:51.022Z,24
2018-07-15T03:23:31.413Z,28
2018-07-15T03:24:11.832Z,28
2018-07-15T03:24:52.294Z,28
2018-07-15T03:25:32.692Z,32
2018-07-15T03:26:13.104Z,32
2018-07-15T03:26:53.484Z,32
2018-07-15T03:27:33.871Z,36
2018-07-15T03:28:14.291Z,40
2018-07-15T03:28:54.697Z,44
2018-07-15T03:29:35.095Z,44
2018-07-15T03:30:15.513Z,44
2018-07-15T03:30:55.932Z,48
2018-07-15T03:31:36.306Z,52
2018-07-15T03:32:16.725Z,56
2018-07-15T03:32:57.149Z,60
2018-07-15T03:33:37.567Z,64
2018-07-15T03:34:17.973Z,64
2018-07-15T03:34:58.385Z,72
2018-07-15T03:35:38.823Z,76
2018-07-15T03:36:19.249Z,80
2018-07-15T03:36:59.661Z,80
2018-07-15T03:37:40.047Z,88
2018-07-15T03:38:20.504Z,92
2018-07-15T03:39:00.899Z,96
2018-07-15T03:39:41.315Z,100
2018-07-15T03:40:21.754Z,108
2018-07-15T03:41:02.128Z,112
2018-07-15T03:41:42.551Z,116
2018-07-15T03:44:15.775Z,144
2018-07-15T03:44:54.075Z,152
2018-07-15T03:45:34.485Z,160
2018-07-15T03:46:14.886Z,168
2018-07-15T03:46:55.292Z,176
2018-07-15T03:47:35.666Z,188
2018-07-15T03:48:16.057Z,192
2018-07-15T03:48:56.465Z,204
2018-07-15T03:49:36.896Z,216
2018-07-15T03:50:17.264Z,224
2018-07-15T03:52:53.071Z,272
2018-07-15T03:53:32.987Z,284
2018-07-15T03:54:13.383Z,296
2018-07-15T03:54:53.788Z,312
2018-07-15T03:55:34.185Z,324
2018-07-15T03:56:15.032Z,336
2018-07-15T03:56:55.566Z,352
2018-07-15T03:57:35.983Z,368
2018-07-15T03:58:16.444Z,376
2018-07-15T03:58:56.784Z,396
2018-07-15T03:59:37.203Z,408
2018-07-15T04:00:17.540Z,420
2018-07-15T04:00:57.961Z,436
2018-07-15T04:01:38.358Z,452
2018-07-15T04:02:18.758Z,468
2018-07-15T04:02:59.212Z,480
2018-07-15T04:03:39.587Z,492
2018-07-15T04:04:19.996Z,508
2018-07-15T04:43:13.860Z,10044
2018-07-15T04:43:58.749Z,10168
2018-07-15T04:44:38.986Z,10592
2018-07-15T04:45:19.532Z,11040
2018-07-15T04:45:59.883Z,10496
2018-07-15T04:46:40.300Z,10292
2018-07-15T04:47:20.712Z,10752
2018-07-15T04:48:01.142Z,11168
2018-07-15T04:48:41.495Z,10944
2018-07-15T04:49:21.912Z,10656
2018-07-15T04:50:02.333Z,11456
2018-07-15T04:50:42.749Z,11616
2018-07-15T04:51:23.139Z,12096
2018-07-15T04:52:03.709Z,11936
2018-07-15T04:52:44.014Z,12000
2018-07-15T04:53:24.677Z,12384
2018-07-15T04:54:05.772Z,12960
2018-07-15T04:54:46.992Z,12448
2018-07-15T04:55:28.724Z,12864
2018-07-15T04:56:13.003Z,13216
2018-07-15T04:58:20.902Z,13664
2018-07-15T04:59:01.435Z,14528
2018-07-15T04:59:41.864Z,14240
2018-07-15T05:00:22.286Z,15488
2018-07-15T05:01:02.687Z,15392
2018-07-15T05:01:43.086Z,15200
2018-07-15T05:02:23.475Z,16032
2018-07-15T05:03:03.888Z,16576
2018-07-15T05:03:44.318Z,16288
2018-07-15T05:04:24.695Z,16928
2018-07-15T05:05:05.096Z,17312
2018-07-15T05:05:45.503Z,17568
2018-07-15T05:06:25.920Z,17696
2018-07-15T05:07:06.394Z,18432
2018-07-15T05:09:19.664Z,17696
2018-07-15T05:09:59.606Z,17920
2018-07-15T05:10:40.035Z,18016
2018-07-15T05:11:20.497Z,18816
2018-07-15T05:13:54.787Z,19872
2018-07-15T05:14:35.201Z,19872
2018-07-15T05:15:15.616Z,20288
2018-07-15T05:15:56.095Z,20512
2018-07-15T05:16:36.460Z,20736
2018-07-15T05:17:16.854Z,21504
2018-07-15T05:17:57.249Z,22144
2018-07-15T05:18:37.670Z,21664
2018-07-15T05:19:18.091Z,22464
2018-07-15T05:19:58.492Z,22688
2018-07-15T05:20:38.902Z,22912
2018-07-15T05:21:19.374Z,23808
2018-07-15T05:21:59.730Z,24352
2018-07-15T05:22:40.131Z,23840
2018-07-15T05:23:20.542Z,24224
2018-07-15T05:24:00.960Z,22976
2018-07-15T05:24:41.402Z,22816
2018-07-15T05:25:21.831Z,23808
2018-07-15T05:26:02.229Z,23616
2018-07-15T05:26:42.661Z,23936
2018-07-15T05:27:23.083Z,23360
2018-07-15T05:28:03.508Z,23104
2018-07-15T05:28:43.913Z,23936
2018-07-15T05:29:24.318Z,24736
2018-07-15T05:41:11.604Z,30848
2018-07-15T05:41:50.935Z,30848
2018-07-15T05:49:31.522Z,32736
2018-07-15T05:50:11.933Z,33024
2018-07-15T05:50:52.351Z,33888
2018-07-15T05:51:32.777Z,34016
2018-07-15T05:52:13.226Z,34912
2018-07-15T05:52:53.625Z,34784
2018-07-15T05:53:34.060Z,34752
2018-07-15T05:54:14.476Z,34048
2018-07-15T05:54:54.887Z,34112
2018-07-15T05:55:35.338Z,35264
2018-07-15T05:56:15.714Z,35520
2018-07-15T05:56:56.129Z,36672
2018-07-15T05:57:36.541Z,35488
2018-07-15T05:58:16.989Z,36608
2018-07-15T05:58:57.392Z,36704
2018-07-15T05:59:37.794Z,36480
2018-07-15T06:02:10.532Z,36864
2018-07-15T06:02:51.551Z,36096
2018-07-15T06:03:32.085Z,37344
2018-07-15T06:04:12.370Z,39200
2018-07-15T06:04:52.805Z,39392
2018-07-15T06:05:33.230Z,39808
2018-07-15T06:06:13.644Z,41088
2018-07-15T06:06:54.113Z,39072
2018-07-15T06:07:34.501Z,38272
2018-07-15T06:08:14.905Z,40288
2018-07-15T06:08:55.354Z,40288
2018-07-15T06:09:35.740Z,40384
2018-07-15T06:10:16.210Z,40768
2018-07-15T06:10:56.627Z,41216
2018-07-15T06:11:37.041Z,42080
2018-07-15T06:12:17.468Z,42176
2018-07-15T06:12:57.857Z,41568
2018-07-15T06:13:38.229Z,40768
2018-07-15T06:14:18.645Z,41376
2018-07-15T06:14:59.065Z,40416
2018-07-15T06:15:39.550Z,41440
2018-07-15T06:17:19.924Z,41696
2018-07-15T06:18:00.473Z,42656
2018-07-15T06:18:40.896Z,42976
2018-07-15T06:19:21.276Z,42272
2018-07-15T06:20:01.706Z,42176
2018-07-15T06:20:42.191Z,43872
2018-07-15T06:21:22.603Z,44640
2018-07-15T06:22:03.086Z,43776
2018-07-15T06:22:43.583Z,44000
2018-07-15T06:23:23.919Z,46240
2018-07-15T06:24:04.317Z,48800
2018-07-15T06:26:27.030Z,49696
2018-07-15T06:27:07.463Z,48992
2018-07-15T06:27:49.343Z,48096
2018-07-15T06:28:29.856Z,47552
2018-07-15T06:29:10.266Z,45376
2018-07-15T06:29:50.678Z,41696
2018-07-15T06:30:31.082Z,40448
2018-07-15T06:31:11.510Z,41056
2018-07-15T06:31:52.079Z,43360
2018-07-15T06:32:32.346Z,44096
2018-07-15T06:35:44.800Z,31424
2018-07-15T06:36:25.229Z,29696
2018-07-15T06:37:05.654Z,28672
2018-07-15T06:37:46.090Z,28096
2018-07-15T06:38:26.522Z,28064
2018-07-15T06:39:06.966Z,28192
2018-07-15T06:39:47.383Z,28032
2018-07-15T06:40:27.863Z,28800
2018-07-15T06:41:12.321Z,29152
2018-07-15T06:41:54.365Z,29056
2018-07-15T06:42:34.528Z,29344
2018-07-15T06:43:14.940Z,29696
2018-07-15T06:43:55.389Z,31616
2018-07-15T06:44:40.941Z,32064
2018-07-15T06:45:27.651Z,30240
2018-07-15T06:46:08.216Z,26048
2018-07-15T06:46:48.434Z,24480
2018-07-15T06:47:28.819Z,24160
2018-07-15T06:48:09.301Z,23904
2018-07-15T06:48:49.722Z,24480
2018-07-15T06:49:30.090Z,25184
2018-07-15T06:50:10.530Z,26304
2018-07-15T06:50:50.973Z,26624
2018-07-15T06:51:31.458Z,25696
2018-07-15T06:52:11.859Z,24576
2018-07-15T06:52:52.427Z,23968
2018-07-15T06:53:33.238Z,23680
2018-07-15T06:54:14.521Z,23584
2018-07-15T06:56:23.069Z,24416
2018-07-15T06:57:03.564Z,24160
2018-07-15T06:57:43.931Z,23744
2018-07-15T06:58:24.387Z,23168
2018-07-15T06:59:04.837Z,22880
2018-07-15T06:59:45.334Z,23328
2018-07-15T07:00:25.674Z,23872
2018-07-15T07:01:06.111Z,24576
2018-07-15T07:01:46.532Z,25376
2018-07-15T07:02:27.041Z,25856
2018-07-15T07:03:07.849Z,27648
2018-07-15T07:03:48.299Z,31616
2018-07-15T07:04:28.702Z,37664
2018-07-15T07:05:09.670Z,43424
2018-07-15T07:05:50.178Z,47264
2018-07-15T07:06:30.573Z,48576
2018-07-15T07:07:11.113Z,49152
2018-07-15T07:07:51.426Z,50112
2018-07-15T07:08:31.816Z,50208
2018-07-15T07:09:12.230Z,49824
2018-07-15T07:09:52.696Z,49248
2018-07-15T07:10:33.065Z,50048
2018-07-15T07:11:13.498Z,49856
2018-07-15T07:11:53.944Z,48864
2018-07-15T07:12:34.418Z,49088
2018-07-15T07:13:14.808Z,50240
2018-07-15T07:13:55.259Z,49920
2018-07-15T07:14:35.655Z,49984
2018-07-15T07:15:16.070Z,48992
2018-07-15T07:15:56.488Z,48704
2018-07-15T07:16:36.893Z,49024
2018-07-15T07:17:17.300Z,49056
2018-07-15T07:17:57.740Z,49408
2018-07-15T07:18:38.246Z,47776
2018-07-15T07:19:18.597Z,39072
2018-07-15T07:19:59.018Z,29376
2018-07-15T07:20:39.474Z,23360
2018-07-15T07:21:19.879Z,22752
2018-07-15T07:22:00.286Z,22400
2018-07-15T07:22:40.722Z,21600
2018-07-15T07:23:21.145Z,20800
2018-07-15T07:24:01.625Z,20288
2018-07-15T07:24:42.054Z,19840
2018-07-15T07:25:22.457Z,18752
2018-07-15T07:26:02.837Z,17760
2018-07-15T07:26:43.244Z,17344
2018-07-15T07:27:23.670Z,16836
2018-07-15T07:28:04.092Z,16628
2018-07-15T07:28:44.533Z,16140
2018-07-15T07:29:24.954Z,15820
2018-07-15T07:30:05.375Z,15660
2018-07-15T07:30:45.764Z,15864
2018-07-15T07:31:26.171Z,16384
2018-07-15T07:32:06.611Z,16652
2018-07-15T07:32:47.009Z,16892
2018-07-15T07:33:27.443Z,15080
2018-07-15T07:34:07.879Z,11160
2018-07-15T07:34:48.291Z,7576
2018-07-15T07:35:28.862Z,6528
2018-07-15T07:36:09.192Z,6296
2018-07-15T07:36:49.664Z,6144
2018-07-15T07:37:30.026Z,6052
2018-07-15T07:38:10.509Z,5948
2018-07-15T07:38:51.029Z,5816
2018-07-15T07:39:31.376Z,5668
2018-07-15T07:40:11.754Z,5464
2018-07-15T07:40:52.114Z,5280
2018-07-15T07:41:32.562Z,5164
2018-07-15T07:42:12.996Z,5088
2018-07-15T07:42:53.411Z,5044
2018-07-15T07:43:33.876Z,4992
2018-07-15T07:44:18.751Z,4924
2018-07-15T07:44:59.193Z,4836
2018-07-15T07:45:39.647Z,4752
2018-07-15T07:46:20.060Z,4696
2018-07-15T07:47:00.587Z,4644
2018-07-15T07:47:40.873Z,4592
2018-07-15T07:48:21.362Z,4540
2018-07-15T07:49:01.791Z,4480
2018-07-15T07:49:42.223Z,4432
2018-07-15T07:50:22.644Z,4384
2018-07-15T07:51:03.880Z,4332
2018-07-15T07:51:44.360Z,4272
2018-07-15T07:52:24.726Z,4228
2018-07-15T07:53:05.182Z,4184
2018-07-15T07:53:45.593Z,4148
2018-07-15T07:54:26.002Z,4104
2018-07-15T07:55:06.444Z,4060
2018-07-15T07:55:46.890Z,4012
2018-07-15T07:56:27.291Z,3968
2018-07-15T07:57:07.767Z,3936
2018-07-15T07:57:48.205Z,3900
2018-07-15T07:58:28.570Z,3872
2018-07-15T07:59:08.990Z,3840
2018-07-15T07:59:49.365Z,3808
2018-07-15T08:00:29.826Z,3772
2018-07-15T08:01:10.263Z,3752
2018-07-15T08:01:50.711Z,3720
2018-07-15T08:02:31.058Z,3692
2018-07-15T08:03:11.569Z,3668
2018-07-15T08:05:40.639Z,3564
2018-07-15T08:06:21.032Z,3536
2018-07-15T08:07:01.463Z,3508
2018-07-15T08:07:42.056Z,3480
2018-07-15T08:08:22.308Z,3456
2018-07-15T08:09:02.727Z,3436
2018-07-15T08:09:43.199Z,3408
2018-07-15T08:10:23.604Z,3384
2018-07-15T08:11:04.002Z,3364
2018-07-15T08:11:44.409Z,3332
2018-07-15T08:13:56.969Z,3252
2018-07-15T08:14:37.712Z,3228
2018-07-15T08:15:18.182Z,3200
2018-07-15T08:15:58.566Z,3180
2018-07-15T08:16:38.995Z,3168
2018-07-15T08:17:19.407Z,3152
2018-07-15T08:17:59.827Z,3148
2018-07-15T08:18:40.267Z,3152
2018-07-15T08:19:20.722Z,3152
2018-07-15T08:20:01.140Z,3136
2018-07-15T08:20:41.616Z,3116
2018-07-15T08:21:22.033Z,3104
2018-07-15T08:22:02.429Z,3088
2018-07-15T08:22:42.892Z,3076
2018-07-15T08:23:23.288Z,3068
2018-07-15T08:24:03.715Z,3056
2018-07-15T08:24:44.153Z,3044
2018-07-15T08:25:24.557Z,3032
2018-07-15T08:26:04.992Z,3032
2018-07-15T08:26:45.416Z,3036
2018-07-15T08:27:25.846Z,3024
2018-07-15T08:28:06.305Z,3012
2018-07-15T08:28:46.696Z,2992
2018-07-15T08:29:27.156Z,2976
2018-07-15T08:30:07.551Z,2952
2018-07-15T08:30:47.985Z,2932
2018-07-15T08:31:28.429Z,2912
2018-07-15T08:32:08.808Z,2896
2018-07-15T08:32:49.231Z,2884
2018-07-15T08:33:29.662Z,2868
2018-07-15T08:34:10.109Z,2860
2018-07-15T08:34:50.609Z,2848
2018-07-15T08:35:30.950Z,2832
2018-07-15T08:36:11.388Z,2824
2018-07-15T08:36:51.802Z,2812
2018-07-15T08:37:32.175Z,2804
2018-07-15T08:38:12.572Z,2788
2018-07-15T08:38:53.000Z,2768
2018-07-15T08:39:33.388Z,2764
2018-07-15T08:40:13.816Z,2748
2018-07-15T08:40:54.249Z,2744
2018-07-15T08:41:34.739Z,2736
2018-07-15T08:42:15.091Z,2732
2018-07-15T08:42:55.514Z,2732
2018-07-15T08:43:35.957Z,2724
2018-07-15T08:44:16.321Z,2720
2018-07-15T08:44:56.789Z,2716
2018-07-15T08:45:37.174Z,2708
2018-07-15T08:46:17.576Z,2704
2018-07-15T08:46:58.097Z,2700
2018-07-15T08:47:38.579Z,2688
2018-07-15T08:48:18.985Z,2676
2018-07-15T08:48:59.376Z,2660
2018-07-15T08:49:39.799Z,2644
2018-07-15T08:50:20.217Z,2636
2018-07-15T08:51:00.667Z,2628
2018-07-15T08:51:41.088Z,2612
2018-07-15T08:52:21.489Z,2600
2018-07-15T08:53:01.909Z,2580
2018-07-15T08:53:42.416Z,2572
2018-07-15T08:54:22.830Z,2564
2018-07-15T08:55:03.277Z,2548
2018-07-15T08:55:43.706Z,2540
2018-07-15T08:56:24.110Z,2528
2018-07-15T08:57:04.579Z,2520
2018-07-15T08:57:47.849Z,2508
2018-07-15T08:58:28.298Z,2504
2018-07-15T08:59:20.839Z,2496
2018-07-15T09:00:01.174Z,2484
2018-07-15T09:00:41.699Z,2480
2018-07-15T09:01:22.025Z,2468
2018-07-15T09:02:02.441Z,2456
2018-07-15T09:02:43.076Z,2444
2018-07-15T09:03:23.603Z,2436
2018-07-15T09:04:06.863Z,2424
2018-07-15T09:04:47.254Z,2412
2018-07-15T09:05:27.674Z,2404
2018-07-15T09:06:08.089Z,2400
2018-07-15T09:06:48.507Z,2396
2018-07-15T09:07:28.935Z,2384
2018-07-15T09:08:09.376Z,2380
2018-07-15T09:08:49.846Z,2372
2018-07-15T09:11:24.348Z,2348
2018-07-15T09:13:54.051Z,2324
2018-07-15T09:14:34.458Z,2316
2018-07-15T09:15:14.921Z,2304
2018-07-15T09:15:55.325Z,2296
2018-07-15T09:16:35.745Z,2288
2018-07-15T09:17:16.181Z,2280
2018-07-15T09:17:56.592Z,2272
2018-07-15T09:18:37.125Z,2264
2018-07-15T09:19:17.426Z,2252
2018-07-15T09:21:35.448Z,2228
2018-07-15T09:22:15.821Z,2216
2018-07-15T09:22:56.232Z,2212
2018-07-15T09:23:37.004Z,2204
2018-07-15T09:24:17.336Z,2192
2018-07-15T09:24:57.839Z,2192
2018-07-15T09:25:38.190Z,2188
2018-07-15T09:26:18.625Z,2184
2018-07-15T09:26:59.026Z,2176
2018-07-15T09:27:39.453Z,2172
2018-07-15T09:28:19.863Z,2164
2018-07-15T09:29:00.801Z,2152
2018-07-15T09:29:41.151Z,2148
2018-07-15T09:30:21.547Z,2144
2018-07-15T09:31:01.917Z,2140
2018-07-15T09:31:42.321Z,2136
2018-07-15T09:32:22.805Z,2132
2018-07-15T09:33:03.216Z,2132
2018-07-15T09:33:43.722Z,2136
2018-07-15T09:34:24.184Z,2136
2018-07-15T09:35:04.592Z,2128
2018-07-15T09:35:45.038Z,2128
2018-07-15T09:36:25.444Z,2120
2018-07-15T09:37:05.865Z,2120
2018-07-15T09:37:46.459Z,2120
2018-07-15T09:38:26.871Z,2120
2018-07-15T09:39:07.295Z,2120
2018-07-15T09:39:47.704Z,2120
2018-07-15T09:40:28.114Z,2108
2018-07-15T09:41:08.543Z,2108
2018-07-15T09:41:48.966Z,2108
2018-07-15T09:42:36.518Z,2104
2018-07-15T09:43:16.857Z,2100
2018-07-15T09:43:57.304Z,2096
2018-07-15T09:44:37.703Z,2092
2018-07-15T09:45:18.147Z,2084
2018-07-15T09:45:58.512Z,2080
2018-07-15T09:46:38.990Z,2076
2018-07-15T09:47:19.355Z,2072
2018-07-15T09:47:59.749Z,2072
2018-07-15T09:48:40.179Z,2072
2018-07-15T09:49:41.296Z,2064
2018-07-15T09:50:21.810Z,2056
2018-07-15T09:51:02.642Z,2052
2018-07-15T09:51:43.092Z,2044
2018-07-15T09:52:23.502Z,2040
2018-07-15T09:53:03.943Z,2044
2018-07-15T09:53:44.360Z,2044
2018-07-15T09:54:24.785Z,2040
2018-07-15T09:55:05.177Z,2036
2018-07-15T09:55:45.582Z,2036
2018-07-15T09:58:10.806Z,2008
2018-07-15T09:58:51.185Z,2000
2018-07-15T09:59:31.568Z,1996
2018-07-15T10:00:12.033Z,1992
2018-07-15T10:00:52.798Z,1984
2018-07-15T10:03:26.281Z,1964
2018-07-15T10:04:07.364Z,1960
2018-07-15T10:04:47.771Z,1956
2018-07-15T10:43:11.758Z,1768
2018-07-15T10:43:52.165Z,1768
2018-07-15T10:44:32.747Z,1764
2018-07-15T10:45:13.252Z,1756
2018-07-15T10:45:53.644Z,1752
2018-07-15T10:46:48.929Z,1756
2018-07-15T10:47:29.285Z,1748
2018-07-15T10:48:09.723Z,1748
2018-07-15T10:48:50.514Z,1744
2018-07-15T10:49:31.175Z,1740
2018-07-15T10:50:11.493Z,1740
2018-07-15T10:50:52.585Z,1728
2018-07-15T10:51:32.986Z,1736
2018-07-15T10:52:13.402Z,1732
2018-07-15T10:52:53.911Z,1728
2018-07-15T10:53:34.272Z,1724
2018-07-15T10:54:14.806Z,1716
2018-07-15T10:54:55.160Z,1716
2018-07-15T10:55:35.686Z,1712
2018-07-15T10:56:16.114Z,1708
2018-07-15T10:56:57.998Z,1704
2018-07-15T10:57:38.352Z,1700
2018-07-15T10:58:19.453Z,1700
2018-07-15T10:58:59.911Z,1692
2018-07-15T10:59:40.409Z,1692
2018-07-15T11:00:20.734Z,1692
2018-07-15T11:01:02.632Z,1692
2018-07-15T11:01:42.822Z,1692
2018-07-15T11:02:23.287Z,1692
2018-07-15T11:03:03.737Z,1688
2018-07-15T11:03:44.052Z,1684
2018-07-15T11:04:24.487Z,1680
2018-07-15T11:05:04.928Z,1676
2018-07-15T11:05:45.336Z,1672
2018-07-15T11:06:25.789Z,1664
2018-07-15T11:07:06.450Z,1664
2018-07-15T11:07:46.649Z,1660
2018-07-15T11:08:28.193Z,1660
2018-07-15T11:09:08.623Z,1656
2018-07-15T11:09:50.059Z,1660
2018-07-15T11:10:30.487Z,1664
2018-07-15T11:11:10.822Z,1664
2018-07-15T11:11:51.680Z,1664
2018-07-15T11:12:32.102Z,1664
2018-07-15T11:13:12.566Z,1668
2018-07-15T11:13:52.963Z,1664
2018-07-15T11:14:33.410Z,1668
2018-07-15T11:15:14.334Z,1668
2018-07-15T11:15:54.725Z,1664
2018-07-15T11:16:35.256Z,1660
2018-07-15T11:17:15.615Z,1664
2018-07-15T11:17:56.122Z,1664
2018-07-15T11:18:36.553Z,1664
2018-07-15T11:19:16.910Z,1660
2018-07-15T11:19:57.364Z,1660
2018-07-15T11:20:37.672Z,1660
2018-07-15T11:21:18.289Z,1660
2018-07-15T11:21:59.411Z,1656
2018-07-15T11:22:39.853Z,1656
2018-07-15T11:23:20.293Z,1656
2018-07-15T11:24:00.707Z,1660
2018-07-15T11:24:41.089Z,1660
2018-07-15T11:25:21.515Z,1660
2018-07-15T11:26:02.039Z,1660
2018-07-15T11:26:42.398Z,1660
2018-07-15T11:27:22.824Z,1660
2018-07-15T11:28:03.239Z,1660
2018-07-15T11:28:43.697Z,1656
2018-07-15T11:29:24.088Z,1660
2018-07-15T11:30:04.536Z,1652
2018-07-15T11:30:45.071Z,1656
2018-07-15T11:31:25.475Z,1660
2018-07-15T11:32:10.403Z,1668
2018-07-15T11:32:50.309Z,1672
2018-07-15T11:33:30.794Z,1668
2018-07-15T11:34:13.331Z,1664
2018-07-15T11:34:57.973Z,1656
2018-07-15T11:35:36.663Z,1652
2018-07-15T11:36:17.068Z,1652
2018-07-15T11:36:57.475Z,1648
2018-07-15T11:39:12.378Z,1632
2018-07-15T11:39:54.475Z,1628
2018-07-15T11:40:34.950Z,1624
2018-07-15T11:41:15.306Z,1620
2018-07-15T11:41:56.068Z,1620
2018-07-15T11:42:36.519Z,1624
2018-07-15T11:43:16.920Z,1632
2018-07-15T11:43:57.349Z,1632
2018-07-15T11:44:38.679Z,1636
2018-07-15T11:45:19.197Z,1632
2018-07-15T11:45:59.630Z,1624
2018-07-15T11:46:40.050Z,1612
2018-07-15T11:47:20.467Z,1612
2018-07-15T11:48:01.017Z,1604
2018-07-15T11:48:41.395Z,1596